Time;durP1;ratioP1;P1;durP2;ratioP2;P2;SDS_P1;SDS_P2;PMS_P1;PMS_P2;Temp;Humidity;BMP_temperature;BMP_pressure;BME280_temperature;BME280_humidity;BME280_pressure;Samples;Min_cycle;Max_cycle;Signal;HPM_P1;HPM_P2
2021/04/07 00:02:22;;;;;;;15.77;2.47;;;1.30;99.90;;;;;;5057901;28;20224;-89
2021/04/07 00:04:58;;;;;;;13.33;3.10;;;1.40;99.90;;;;;;5057838;28;20233;-89
2021/04/07 00:07:25;;;;;;;12.07;2.60;;;1.40;99.90;;;;;;5057321;28;20228;-90
2021/04/07 00:09:54;;;;;;;18.70;3.33;;;1.40;99.90;;;;;;5057406;28;20682;-89
2021/04/07 00:12:21;;;;;;;12.50;2.57;;;1.40;99.90;;;;;;5057400;28;20209;-89
2021/04/07 00:14:48;;;;;;;11.00;2.60;;;1.30;99.90;;;;;;5057318;28;20258;-90
2021/04/07 00:17:24;;;;;;;12.90;2.70;;;1.30;99.90;;;;;;5063897;28;20210;-89
2021/04/07 00:19:52;;;;;;;15.13;2.87;;;1.30;99.90;;;;;;5077529;28;20210;-90
2021/04/07 00:22:19;;;;;;;6.20;2.50;;;1.20;99.90;;;;;;5076904;28;20207;-88
2021/04/07 00:24:56;;;;;;;13.53;2.23;;;1.20;99.90;;;;;;5077137;28;20216;-89
2021/04/07 00:27:30;;;;;;;8.17;2.10;;;1.20;99.90;;;;;;5077507;28;20233;-89
2021/04/07 00:29:57;;;;;;;11.30;2.57;;;1.10;99.90;;;;;;5077380;28;20196;-90
2021/04/07 00:32:27;;;;;;;15.20;2.60;;;1.10;99.90;;;;;;5077598;28;20205;-89
2021/04/07 00:34:55;;;;;;;14.67;2.30;;;1.10;99.90;;;;;;5077432;28;20203;-90
2021/04/07 00:37:28;;;;;;;10.87;2.50;;;1.20;99.90;;;;;;5076984;28;20203;-89
2021/04/07 00:40:11;;;;;;;8.87;2.30;;;1.20;99.90;;;;;;5076352;28;20205;-90
2021/04/07 00:42:41;;;;;;;9.03;2.20;;;1.20;99.90;;;;;;5077004;28;20200;-90
2021/04/07 00:45:12;;;;;;;12.83;2.13;;;1.40;99.90;;;;;;5076853;28;20200;-90
2021/04/07 00:48:05;;;;;;;12.87;2.40;;;1.50;99.90;;;;;;5076607;28;20227;-89
2021/04/07 00:50:40;;;;;;;6.53;1.93;;;1.40;99.90;;;;;;5076818;28;20204;-88
2021/04/07 00:53:06;;;;;;;6.50;2.03;;;1.50;99.90;;;;;;5077247;28;20286;-89
2021/04/07 00:55:37;;;;;;;11.23;2.13;;;1.60;99.90;;;;;;5076910;28;20195;-89
2021/04/07 00:58:06;;;;;;;3.73;1.50;;;1.70;99.90;;;;;;5077153;28;20200;-89
2021/04/07 01:00:35;;;;;;;9.57;2.20;;;1.60;99.90;;;;;;5075862;28;20220;-89
2021/04/07 01:03:06;;;;;;;7.80;2.00;;;1.60;99.90;;;;;;5076553;28;20200;-90
2021/04/07 01:05:35;;;;;;;11.60;2.23;;;1.70;99.90;;;;;;5076787;28;20212;-89
2021/04/07 01:08:05;;;;;;;11.70;1.93;;;1.70;99.90;;;;;;5076545;28;20228;-88
2021/04/07 01:10:36;;;;;;;10.00;2.10;;;1.80;99.90;;;;;;5076551;28;20199;-89
2021/04/07 01:13:04;;;;;;;13.93;1.80;;;1.80;99.90;;;;;;5076596;28;20200;-89
2021/04/07 01:15:31;;;;;;;13.47;1.90;;;1.80;99.90;;;;;;5076300;28;20208;-88
2021/04/07 01:17:58;;;;;;;7.17;1.93;;;1.70;99.90;;;;;;5075740;28;20206;-89
2021/04/07 01:20:25;;;;;;;14.60;1.70;;;1.60;99.90;;;;;;5075984;28;20191;-88
2021/04/07 01:22:57;;;;;;;7.40;1.63;;;1.40;99.90;;;;;;5076317;28;20207;-87
2021/04/07 01:25:26;;;;;;;10.07;1.87;;;1.40;99.90;;;;;;5076145;28;20256;-89
2021/04/07 01:27:53;;;;;;;10.77;1.87;;;1.30;99.90;;;;;;5075626;28;20221;-88
2021/04/07 01:30:20;;;;;;;8.37;1.57;;;1.20;99.90;;;;;;5076029;28;20290;-90
2021/04/07 01:32:47;;;;;;;8.80;1.63;;;1.20;99.90;;;;;;5075749;28;20195;-88
2021/04/07 01:35:15;;;;;;;8.87;2.13;;;1.10;99.90;;;;;;5076155;28;20210;-89
2021/04/07 01:37:42;;;;;;;6.33;1.50;;;1.00;99.90;;;;;;5075731;28;20210;-89
2021/04/07 01:40:10;;;;;;;10.23;1.70;;;1.00;99.90;;;;;;5076154;28;20539;-90
2021/04/07 01:42:39;;;;;;;7.27;1.70;;;1.00;99.90;;;;;;5075890;28;20559;-89
2021/04/07 01:45:08;;;;;;;12.33;1.70;;;0.90;99.90;;;;;;5075197;28;20283;-88
2021/04/07 01:47:35;;;;;;;7.37;1.50;;;0.90;99.90;;;;;;5074857;28;20761;-89
2021/04/07 01:50:05;;;;;;;8.93;2.10;;;1.00;99.90;;;;;;5075312;28;20239;-88
2021/04/07 01:52:32;;;;;;;11.50;2.17;;;1.00;99.90;;;;;;5075955;28;20195;-88
2021/04/07 01:54:59;;;;;;;10.47;2.10;;;1.10;99.90;;;;;;5075011;28;20231;-89
2021/04/07 01:57:26;;;;;;;11.07;2.40;;;1.20;99.90;;;;;;5075284;28;20262;-89
2021/04/07 01:59:53;;;;;;;8.20;1.70;;;1.30;99.90;;;;;;5075209;28;20201;-88
2021/04/07 02:02:20;;;;;;;14.50;2.30;;;1.30;99.90;;;;;;5074351;28;20200;-89
2021/04/07 02:04:47;;;;;;;10.10;2.30;;;1.40;99.90;;;;;;5075036;28;20235;-88
2021/04/07 02:07:15;;;;;;;14.60;2.83;;;1.40;99.90;;;;;;5075046;28;20262;-88
2021/04/07 02:09:42;;;;;;;10.73;2.90;;;1.50;99.90;;;;;;5075054;28;20205;-88
2021/04/07 02:12:09;;;;;;;12.07;3.40;;;1.40;99.90;;;;;;5075327;28;20203;-89
2021/04/07 02:14:36;;;;;;;12.20;3.50;;;1.30;99.90;;;;;;5075189;28;20196;-89
2021/04/07 02:17:06;;;;;;;8.90;3.30;;;1.30;99.90;;;;;;5073909;28;20196;-88
2021/04/07 02:19:34;;;;;;;8.57;3.53;;;1.30;99.90;;;;;;5075278;28;20226;-88
2021/04/07 02:22:05;;;;;;;5.30;2.63;;;1.30;99.90;;;;;;5075134;28;20242;-88
2021/04/07 02:24:32;;;;;;;6.43;2.60;;;1.40;99.90;;;;;;5074171;28;20208;-87
2021/04/07 02:27:02;;;;;;;7.63;2.23;;;1.40;99.90;;;;;;5075004;28;20255;-89
2021/04/07 02:29:29;;;;;;;7.20;2.23;;;1.30;99.90;;;;;;5074589;28;20278;-88
2021/04/07 02:31:56;;;;;;;8.60;2.10;;;1.40;99.90;;;;;;5074613;28;20246;-88
2021/04/07 02:34:26;;;;;;;5.13;3.03;;;1.30;99.90;;;;;;5074140;28;20660;-88
2021/04/07 02:36:53;;;;;;;7.17;2.60;;;1.40;99.90;;;;;;5075151;28;20204;-89
2021/04/07 02:39:20;;;;;;;8.93;3.27;;;1.40;99.90;;;;;;5074594;28;20206;-86
2021/04/07 02:41:46;;;;;;;7.03;3.50;;;1.40;99.90;;;;;;5075128;28;20241;-88
2021/04/07 02:44:13;;;;;;;11.27;3.90;;;1.30;99.90;;;;;;5074680;28;20212;-88
2021/04/07 02:46:39;;;;;;;7.77;3.60;;;1.40;99.90;;;;;;5074871;28;20260;-87
2021/04/07 02:49:06;;;;;;;10.80;3.20;;;1.30;99.90;;;;;;5073195;28;20197;-87
2021/04/07 02:51:33;;;;;;;10.20;3.13;;;1.20;99.90;;;;;;5075226;28;20215;-87
2021/04/07 02:54:00;;;;;;;8.83;3.77;;;1.20;99.90;;;;;;5074341;28;20209;-87
2021/04/07 02:56:29;;;;;;;6.80;3.07;;;1.10;99.90;;;;;;5074749;28;20218;-88
2021/04/07 02:59:00;;;;;;;8.33;3.03;;;1.10;99.90;;;;;;5074242;28;20672;-89
2021/04/07 03:01:26;;;;;;;9.70;3.33;;;1.10;99.90;;;;;;5074390;28;20210;-88
2021/04/07 03:03:53;;;;;;;6.50;2.60;;;1.10;99.90;;;;;;5073567;28;20629;-87
2021/04/07 03:06:20;;;;;;;9.50;3.10;;;1.10;99.90;;;;;;5074682;28;20719;-89
2021/04/07 03:08:48;;;;;;;8.40;2.87;;;1.10;99.90;;;;;;5074383;28;20199;-88
2021/04/07 03:11:14;;;;;;;10.43;3.80;;;1.20;99.90;;;;;;5078098;28;20622;-86
2021/04/07 03:13:41;;;;;;;10.93;2.63;;;1.20;99.90;;;;;;5078364;28;20676;-88
2021/04/07 03:16:08;;;;;;;11.37;3.30;;;1.20;99.90;;;;;;5078188;28;20192;-85
2021/04/07 03:18:34;;;;;;;15.60;3.37;;;1.30;99.90;;;;;;5076809;28;20204;-87
2021/04/07 03:21:01;;;;;;;6.77;3.03;;;1.20;99.90;;;;;;5078278;28;20199;-88
2021/04/07 03:23:28;;;;;;;9.77;2.97;;;1.30;99.90;;;;;;5077616;28;20239;-86
2021/04/07 03:25:55;;;;;;;11.23;2.70;;;1.30;99.90;;;;;;5078026;28;20276;-86
2021/04/07 03:28:22;;;;;;;13.27;2.50;;;1.30;99.90;;;;;;5077539;28;20869;-88
2021/04/07 03:30:50;;;;;;;10.27;2.40;;;1.40;99.90;;;;;;5077261;28;20300;-87
2021/04/07 03:33:17;;;;;;;9.27;2.37;;;1.40;99.90;;;;;;5076961;28;20231;-86
2021/04/07 03:35:44;;;;;;;10.10;2.07;;;1.40;99.90;;;;;;5078029;28;20238;-87
2021/04/07 03:38:11;;;;;;;11.40;1.97;;;1.40;99.90;;;;;;5077972;28;20199;-88
2021/04/07 03:40:38;;;;;;;11.43;2.10;;;1.30;99.90;;;;;;5077109;28;20620;-87
2021/04/07 03:43:08;;;;;;;15.33;1.87;;;1.40;99.90;;;;;;5077965;28;20283;-88
2021/04/07 03:45:34;;;;;;;11.70;2.37;;;1.40;99.90;;;;;;5077035;28;20649;-87
2021/04/07 03:48:01;;;;;;;16.03;2.40;;;1.40;99.90;;;;;;5077081;28;20259;-86
2021/04/07 03:50:28;;;;;;;11.43;2.13;;;1.40;99.90;;;;;;5077317;28;20257;-89
2021/04/07 03:52:55;;;;;;;10.50;2.00;;;1.40;99.90;;;;;;5077732;28;20224;-88
2021/04/07 03:55:21;;;;;;;18.37;2.03;;;1.50;99.90;;;;;;5077404;28;20286;-87
2021/04/07 03:57:48;;;;;;;11.30;2.07;;;1.50;99.90;;;;;;5078018;28;20325;-88
2021/04/07 04:00:16;;;;;;;16.63;2.43;;;1.50;99.90;;;;;;5076891;28;20288;-87
2021/04/07 04:02:42;;;;;;;12.83;2.07;;;1.60;99.90;;;;;;5075852;28;20728;-88
2021/04/07 04:05:10;;;;;;;16.90;2.20;;;1.60;99.90;;;;;;5076987;28;20228;-86
2021/04/07 04:07:37;;;;;;;10.50;2.30;;;1.60;99.90;;;;;;5077373;28;20220;-88
2021/04/07 04:10:04;;;;;;;10.97;2.13;;;1.60;99.90;;;;;;5077730;28;20211;-89
2021/04/07 04:12:31;;;;;;;18.33;2.70;;;1.60;99.90;;;;;;5077040;28;20748;-89
2021/04/07 04:14:57;;;;;;;10.47;2.57;;;1.60;99.90;;;;;;5077014;28;20257;-88
2021/04/07 04:17:24;;;;;;;17.07;2.13;;;1.50;99.90;;;;;;5076118;28;20197;-87
2021/04/07 04:19:51;;;;;;;15.53;2.50;;;1.50;99.90;;;;;;5077037;28;20234;-87
2021/04/07 04:22:17;;;;;;;13.93;2.03;;;1.50;99.90;;;;;;5076041;28;20533;-87
2021/04/07 04:24:44;;;;;;;12.20;2.30;;;1.60;99.90;;;;;;5076928;28;20303;-87
2021/04/07 04:27:10;;;;;;;8.73;2.27;;;1.60;99.90;;;;;;5076037;28;20217;-88
2021/04/07 04:29:37;;;;;;;13.73;2.30;;;1.60;99.90;;;;;;5076605;28;20291;-86
2021/04/07 04:32:04;;;;;;;16.30;2.47;;;1.60;99.90;;;;;;5076218;28;20613;-86
2021/04/07 04:34:31;;;;;;;13.20;2.30;;;1.60;99.90;;;;;;5076591;28;20202;-86
2021/04/07 04:36:58;;;;;;;12.83;2.07;;;1.50;99.90;;;;;;5077008;28;20192;-87
2021/04/07 04:39:24;;;;;;;27.47;2.87;;;1.50;99.90;;;;;;5076277;28;20205;-87
2021/04/07 04:41:50;;;;;;;17.93;2.77;;;1.50;99.90;;;;;;5076651;28;20293;-87
2021/04/07 04:44:17;;;;;;;16.77;2.53;;;1.60;99.90;;;;;;5076099;28;20286;-86
2021/04/07 04:46:43;;;;;;;22.03;3.03;;;1.60;99.90;;;;;;5075361;28;20294;-86
2021/04/07 04:49:10;;;;;;;13.60;2.13;;;1.60;99.90;;;;;;5075837;28;20196;-87
2021/04/07 04:51:37;;;;;;;24.43;2.80;;;1.50;99.90;;;;;;5076765;28;20219;-87
2021/04/07 04:54:04;;;;;;;12.63;2.57;;;1.60;99.90;;;;;;5075440;28;20269;-88
2021/04/07 04:56:31;;;;;;;9.50;2.33;;;1.60;99.90;;;;;;5076582;28;20733;-87
2021/04/07 04:58:57;;;;;;;11.17;2.00;;;1.60;99.90;;;;;;5075974;28;20192;-88
2021/04/07 05:01:24;;;;;;;8.80;2.00;;;1.60;99.90;;;;;;5075306;28;20764;-89
2021/04/07 05:03:52;;;;;;;10.03;2.30;;;1.60;99.90;;;;;;5076308;28;20560;-87
2021/04/07 05:06:20;;;;;;;13.10;2.23;;;1.70;99.90;;;;;;5075814;28;20196;-87
2021/04/07 05:08:48;;;;;;;15.90;2.43;;;1.70;99.90;;;;;;5076200;28;20275;-87
2021/04/07 05:11:14;;;;;;;9.97;2.60;;;1.80;99.90;;;;;;5075363;28;20200;-88
2021/04/07 05:13:42;;;;;;;12.97;2.07;;;1.80;99.90;;;;;;5075659;28;20199;-86
2021/04/07 05:16:08;;;;;;;8.10;2.00;;;1.70;99.90;;;;;;5075088;28;20204;-88
2021/04/07 05:18:35;;;;;;;16.00;2.50;;;1.80;99.90;;;;;;5075641;28;20228;-87
2021/04/07 05:21:01;;;;;;;14.07;2.33;;;1.80;99.90;;;;;;5072135;28;20208;-87
2021/04/07 05:23:28;;;;;;;11.17;2.33;;;1.90;99.90;;;;;;5065370;28;20658;-86
2021/04/07 05:25:55;;;;;;;9.20;1.97;;;1.90;99.90;;;;;;5074238;28;20616;-84
2021/04/07 05:28:22;;;;;;;10.40;1.73;;;1.90;99.90;;;;;;5077902;28;20322;-88
2021/04/07 05:31:01;;;;;;;10.30;2.23;;;1.90;99.90;;;;;;5071243;28;20295;-88
2021/04/07 05:33:29;;;;;;;15.47;2.10;;;1.90;99.90;;;;;;5083016;28;20232;-86
2021/04/07 05:35:56;;;;;;;12.00;2.33;;;1.90;99.90;;;;;;5090489;28;20253;-86
2021/04/07 05:38:23;;;;;;;8.50;2.20;;;1.90;99.90;;;;;;5074161;28;20599;-85
2021/04/07 05:40:51;;;;;;;14.37;2.50;;;1.90;99.90;;;;;;5074811;28;20198;-87
2021/04/07 05:43:19;;;;;;;12.27;2.00;;;1.90;99.90;;;;;;5074677;28;20290;-86
2021/04/07 05:45:45;;;;;;;16.97;2.77;;;1.90;99.90;;;;;;5074565;28;20242;-86
2021/04/07 05:48:12;;;;;;;10.20;1.83;;;2.00;99.90;;;;;;5074417;28;20228;-86
2021/04/07 05:50:39;;;;;;;10.80;1.83;;;2.00;99.90;;;;;;5087121;28;20723;-86
2021/04/07 05:53:06;;;;;;;8.60;2.00;;;2.00;99.90;;;;;;5074734;28;20203;-85
2021/04/07 05:55:33;;;;;;;12.30;1.90;;;2.00;99.90;;;;;;5074265;28;20199;-85
2021/04/07 05:58:01;;;;;;;9.00;2.07;;;2.00;99.90;;;;;;5074722;28;20203;-86
2021/04/07 06:00:29;;;;;;;8.97;1.50;;;2.10;99.90;;;;;;5074244;28;20287;-85
2021/04/07 06:02:56;;;;;;;13.80;2.23;;;2.10;99.90;;;;;;5074310;28;20198;-85
2021/04/07 06:05:23;;;;;;;19.37;2.10;;;2.10;99.90;;;;;;5073718;28;20291;-87
2021/04/07 06:07:50;;;;;;;7.67;1.93;;;2.10;99.90;;;;;;5073763;28;20303;-85
2021/04/07 06:10:17;;;;;;;10.23;1.70;;;2.10;99.90;;;;;;5074128;28;20200;-83
2021/04/07 06:12:43;;;;;;;10.97;1.93;;;2.00;99.90;;;;;;5074274;28;20192;-84
2021/04/07 06:15:10;;;;;;;8.60;2.33;;;2.00;99.90;;;;;;5073683;28;20219;-86
2021/04/07 06:17:39;;;;;;;8.23;2.30;;;2.00;99.90;;;;;;5073454;28;20329;-85
2021/04/07 06:20:07;;;;;;;6.63;1.60;;;1.90;99.90;;;;;;5073857;28;20219;-85
2021/04/07 06:22:34;;;;;;;13.07;1.90;;;1.90;99.90;;;;;;5059285;28;20207;-85
2021/04/07 06:25:00;;;;;;;5.03;1.50;;;1.90;99.90;;;;;;5073719;28;20348;-84
2021/04/07 06:27:27;;;;;;;5.53;1.50;;;1.90;99.90;;;;;;5074560;28;20254;-84
2021/04/07 06:29:53;;;;;;;7.57;1.40;;;2.00;99.90;;;;;;5051944;28;20218;-83
2021/04/07 06:32:20;;;;;;;9.37;1.33;;;2.00;99.90;;;;;;5062601;28;20262;-83
2021/04/07 06:34:47;;;;;;;7.73;1.50;;;2.10;99.90;;;;;;5073346;28;20197;-86
2021/04/07 06:37:14;;;;;;;7.43;1.20;;;2.10;99.90;;;;;;5062107;28;20279;-84
2021/04/07 06:39:40;;;;;;;4.70;1.57;;;2.20;99.90;;;;;;5069531;28;20283;-84
2021/04/07 06:42:07;;;;;;;6.80;1.50;;;2.30;99.90;;;;;;5074230;28;20199;-84
2021/04/07 06:44:34;;;;;;;8.20;1.50;;;2.30;99.90;;;;;;5066821;28;20202;-85
2021/04/07 06:47:01;;;;;;;6.20;1.20;;;2.30;99.90;;;;;;5035205;28;20309;-85
2021/04/07 06:49:28;;;;;;;6.27;1.60;;;2.30;99.90;;;;;;5068193;28;20337;-84
2021/04/07 06:51:56;;;;;;;16.87;1.43;;;2.40;99.90;;;;;;5055103;28;20643;-82
2021/04/07 06:54:24;;;;;;;5.93;1.13;;;2.40;99.90;;;;;;5070310;28;20295;-85
2021/04/07 06:56:50;;;;;;;6.10;1.17;;;2.40;99.90;;;;;;5068531;28;20635;-85
2021/04/07 06:59:16;;;;;;;6.20;1.30;;;2.50;99.90;;;;;;5064181;28;20200;-83
2021/04/07 07:01:43;;;;;;;3.27;1.17;;;2.50;99.90;;;;;;5073151;28;20224;-86
2021/04/07 07:04:10;;;;;;;9.23;1.33;;;2.50;99.90;;;;;;5068266;28;20205;-83
2021/04/07 07:06:36;;;;;;;6.67;1.20;;;2.50;99.90;;;;;;5063221;28;20293;-84
2021/04/07 07:09:17;;;;;;;3.60;1.03;;;2.50;99.90;;;;;;5068012;28;20238;-86
2021/04/07 07:11:45;;;;;;;8.20;1.53;;;2.50;99.90;;;;;;5070004;28;20212;-86
2021/04/07 07:14:13;;;;;;;7.57;1.33;;;2.50;99.90;;;;;;5068152;28;20276;-84
2021/04/07 07:16:44;;;;;;;6.10;1.10;;;2.40;99.90;;;;;;5063231;28;20721;-84
2021/04/07 07:19:21;;;;;;;8.10;1.70;;;2.50;99.90;;;;;;5087180;28;20215;-82
2021/04/07 07:21:51;;;;;;;5.07;1.20;;;2.50;99.90;;;;;;5064165;28;20282;-84
2021/04/07 07:24:34;;;;;;;5.87;1.30;;;2.50;99.90;;;;;;5062471;28;20224;-83
2021/04/07 07:27:02;;;;;;;5.80;1.10;;;2.50;99.90;;;;;;5061906;28;20321;-85
2021/04/07 07:29:30;;;;;;;9.13;1.87;;;2.50;99.90;;;;;;5072264;28;20721;-85
2021/04/07 07:32:01;;;;;;;10.83;2.27;;;2.50;99.90;;;;;;5073426;28;20218;-84
2021/04/07 07:34:29;;;;;;;8.17;1.07;;;2.50;99.90;;;;;;5067771;28;20204;-84
2021/04/07 07:36:56;;;;;;;7.43;1.63;;;2.50;99.90;;;;;;5072568;28;20196;-84
2021/04/07 07:39:27;;;;;;;12.13;1.50;;;2.50;99.90;;;;;;5083469;28;20211;-83
2021/04/07 07:41:59;;;;;;;8.53;2.50;;;2.50;99.90;;;;;;5053927;28;20292;-83
2021/04/07 07:44:26;;;;;;;5.33;1.60;;;2.40;99.90;;;;;;5075184;28;20205;-85
2021/04/07 07:46:57;;;;;;;9.60;1.53;;;2.40;99.90;;;;;;5064373;28;20775;-84
2021/04/07 07:49:23;;;;;;;10.13;1.70;;;2.50;99.90;;;;;;5073025;28;20586;-83
2021/04/07 07:51:50;;;;;;;9.67;2.00;;;2.50;99.90;;;;;;5068441;28;20737;-83
2021/04/07 07:54:19;;;;;;;6.97;1.40;;;2.50;99.90;;;;;;5056515;28;20759;-83
2021/04/07 07:56:46;;;;;;;7.77;1.53;;;2.60;99.90;;;;;;5074304;28;20289;-83
2021/04/07 07:59:25;;;;;;;5.93;1.30;;;2.60;99.90;;;;;;5081105;28;20200;-84
2021/04/07 08:01:51;;;;;;;4.20;1.10;;;2.70;99.90;;;;;;5080911;28;20716;-83
2021/04/07 08:04:18;;;;;;;10.63;2.13;;;2.70;99.90;;;;;;5076228;28;20247;-84
2021/04/07 08:06:45;;;;;;;7.63;1.57;;;2.70;99.90;;;;;;5075787;28;20196;-84
2021/04/07 08:09:12;;;;;;;6.87;1.70;;;2.80;99.90;;;;;;5075186;28;20688;-81
2021/04/07 08:11:42;;;;;;;10.50;1.97;;;2.90;99.90;;;;;;5075159;28;20546;-83
2021/04/07 08:14:13;;;;;;;8.80;1.60;;;3.00;99.90;;;;;;5075912;28;20278;-82
2021/04/07 08:16:40;;;;;;;9.10;2.10;;;3.00;99.90;;;;;;5075500;28;20578;-82
2021/04/07 08:19:07;;;;;;;7.90;1.50;;;3.10;99.90;;;;;;5075960;28;20308;-82
2021/04/07 08:21:36;;;;;;;8.47;1.60;;;3.10;99.90;;;;;;5056665;28;20191;-82
2021/04/07 08:24:04;;;;;;;11.43;2.50;;;3.30;99.90;;;;;;5073085;28;20250;-82
2021/04/07 08:26:32;;;;;;;5.93;1.83;;;3.50;99.90;;;;;;5069794;28;20282;-82
2021/04/07 08:28:58;;;;;;;7.27;2.20;;;3.60;99.90;;;;;;5066223;28;20622;-81
2021/04/07 08:31:27;;;;;;;8.03;1.90;;;3.80;99.90;;;;;;5074918;28;20286;-79
2021/04/07 08:33:56;;;;;;;12.13;2.33;;;4.00;99.90;;;;;;5066034;28;20220;-79
2021/04/07 08:36:24;;;;;;;9.80;1.83;;;4.20;99.90;;;;;;5055851;28;20240;-82
2021/04/07 08:38:59;;;;;;;9.67;2.07;;;4.20;99.90;;;;;;5073380;28;20301;-81
2021/04/07 08:41:27;;;;;;;7.83;1.87;;;4.30;99.90;;;;;;5073102;28;20580;-81
2021/04/07 08:43:54;;;;;;;11.07;2.43;;;4.60;99.90;;;;;;5071180;28;20208;-81
2021/04/07 08:46:24;;;;;;;8.13;2.00;;;4.70;99.90;;;;;;5073207;28;20291;-80
2021/04/07 08:48:51;;;;;;;11.17;1.80;;;4.70;99.90;;;;;;5063776;28;20230;-80
2021/04/07 08:51:19;;;;;;;8.90;2.30;;;4.60;99.90;;;;;;5061514;28;20294;-80
2021/04/07 08:53:50;;;;;;;13.00;2.10;;;4.70;99.90;;;;;;5061153;28;20201;-79
2021/04/07 08:56:23;;;;;;;10.70;1.97;;;4.80;99.90;;;;;;5068572;28;20200;-79
2021/04/07 08:58:52;;;;;;;9.57;1.97;;;4.80;99.90;;;;;;5058806;28;20201;-79
2021/04/07 09:01:19;;;;;;;16.20;3.50;;;4.80;99.90;;;;;;5064851;28;20280;-78
2021/04/07 09:03:46;;;;;;;6.77;1.93;;;4.80;99.90;;;;;;5059993;28;20293;-79
2021/04/07 09:06:14;;;;;;;13.57;2.50;;;4.70;99.90;;;;;;5072651;28;20202;-79
2021/04/07 09:08:52;;;;;;;7.93;2.33;;;4.70;99.90;;;;;;5074372;28;20226;-79
2021/04/07 09:11:30;;;;;;;14.47;2.77;;;4.80;99.90;;;;;;5064384;28;20205;-79
2021/04/07 09:14:00;;;;;;;9.00;2.73;;;4.80;99.90;;;;;;5060174;28;20258;-79
2021/04/07 09:16:35;;;;;;;8.57;2.33;;;4.80;99.90;;;;;;5074299;28;20201;-79
2021/04/07 09:19:20;;;;;;;7.40;2.13;;;4.80;99.90;;;;;;5074523;28;20197;-81
2021/04/07 09:22:01;;;;;;;9.67;1.93;;;4.80;99.90;;;;;;5073967;28;20660;-82
2021/04/07 09:24:35;;;;;;;13.83;2.43;;;4.90;99.90;;;;;;5069061;28;20296;-84
2021/04/07 09:27:01;;;;;;;9.60;2.33;;;5.10;99.90;;;;;;5064136;28;20228;-82
2021/04/07 09:29:29;;;;;;;9.67;2.37;;;5.20;99.90;;;;;;5063945;28;20284;-82
2021/04/07 09:31:55;;;;;;;11.13;2.47;;;5.20;99.90;;;;;;5065969;28;20307;-80
2021/04/07 09:34:22;;;;;;;10.73;2.73;;;5.30;99.90;;;;;;5058549;28;20193;-81
2021/04/07 09:36:50;;;;;;;12.70;2.57;;;5.30;99.90;;;;;;5072822;28;20195;-80
2021/04/07 09:39:23;;;;;;;10.50;2.17;;;5.40;99.90;;;;;;5064409;28;20196;-81
2021/04/07 09:41:50;;;;;;;14.00;2.40;;;5.50;99.90;;;;;;5069421;28;20235;-81
2021/04/07 09:44:17;;;;;;;17.03;2.60;;;5.60;99.90;;;;;;5064196;28;20662;-80
2021/04/07 09:46:50;;;;;;;14.80;2.53;;;5.60;99.90;;;;;;5069012;28;20199;-81
2021/04/07 09:49:17;;;;;;;8.97;2.50;;;5.70;99.90;;;;;;5068452;28;20193;-81
2021/04/07 09:51:45;;;;;;;17.23;2.63;;;5.90;99.90;;;;;;5070422;28;20196;-80
2021/04/07 09:54:18;;;;;;;28.97;3.07;;;6.10;99.90;;;;;;5065884;28;20205;-82
2021/04/07 09:56:56;;;;;;;11.27;3.10;;;6.50;99.90;;;;;;5064276;28;20196;-82
2021/04/07 09:59:34;;;;;;;11.07;2.37;;;6.90;99.90;;;;;;5062146;28;20246;-79
2021/04/07 10:02:00;;;;;;;17.73;3.50;;;6.90;99.90;;;;;;5063710;28;20219;-81
2021/04/07 10:04:27;;;;;;;13.77;3.13;;;7.10;99.90;;;;;;5063265;28;20204;-81
2021/04/07 10:06:54;;;;;;;19.03;3.20;;;7.50;99.90;;;;;;5061901;28;20280;-82
2021/04/07 10:09:29;;;;;;;13.57;2.97;;;8.20;99.90;;;;;;5052713;28;20214;-83
2021/04/07 10:11:56;;;;;;;13.00;3.07;;;9.00;99.90;;;;;;5065850;28;20203;-83
2021/04/07 10:14:22;;;;;;;18.77;3.10;;;9.50;99.90;;;;;;5067997;28;20197;-85
2021/04/07 10:16:49;;;;;;;14.83;2.90;;;9.30;99.90;;;;;;5071556;28;20209;-82
2021/04/07 10:19:15;;;;;;;14.47;2.93;;;9.30;99.90;;;;;;5072736;28;20729;-79
2021/04/07 10:21:44;;;;;;;13.03;2.70;;;8.70;99.90;;;;;;5071654;28;20286;-81
2021/04/07 10:24:15;;;;;;;19.13;3.10;;;8.10;99.90;;;;;;5072421;28;20197;-84
2021/04/07 10:26:44;;;;;;;13.70;2.90;;;7.40;99.90;;;;;;5072865;28;20207;-83
2021/04/07 10:29:22;;;;;;;16.90;3.67;;;7.30;99.90;;;;;;5066853;28;20223;-83
2021/04/07 10:31:52;;;;;;;19.67;3.23;;;7.50;99.90;;;;;;5066374;28;20281;-85
2021/04/07 10:34:28;;;;;;;14.10;3.30;;;7.60;99.90;;;;;;5064167;28;20665;-84
2021/04/07 10:36:55;;;;;;;20.20;3.47;;;7.80;99.90;;;;;;5053573;28;20288;-87
2021/04/07 10:39:22;;;;;;;15.00;2.90;;;8.00;99.90;;;;;;5058871;28;20192;-84
2021/04/07 10:41:50;;;;;;;14.10;2.90;;;8.30;99.90;;;;;;5066125;28;20195;-86
2021/04/07 10:44:24;;;;;;;14.57;2.57;;;8.40;99.90;;;;;;5056428;28;20284;-86
2021/04/07 10:46:51;;;;;;;10.70;2.60;;;8.30;99.90;;;;;;5063997;28;20607;-85
2021/04/07 10:49:18;;;;;;;15.80;3.47;;;8.10;99.90;;;;;;5064505;28;20252;-85
2021/04/07 10:51:46;;;;;;;10.47;2.33;;;7.70;99.90;;;;;;5072962;28;20202;-87
2021/04/07 10:54:14;;;;;;;12.57;2.90;;;7.40;99.90;;;;;;5072957;28;20282;-84
2021/04/07 10:56:41;;;;;;;15.97;2.63;;;7.40;99.90;;;;;;5073586;28;20665;-86
2021/04/07 10:59:14;;;;;;;16.40;3.10;;;7.20;99.90;;;;;;5073645;28;20283;-85
2021/04/07 11:01:46;;;;;;;13.27;2.60;;;6.90;99.90;;;;;;5073496;28;20246;-84
2021/04/07 11:04:14;;;;;;;20.97;3.63;;;6.80;99.90;;;;;;5085040;28;20703;-85
2021/04/07 11:06:40;;;;;;;20.93;3.37;;;6.80;99.90;;;;;;5077574;28;20190;-82
2021/04/07 11:09:07;;;;;;;18.50;3.47;;;6.60;99.90;;;;;;5058947;28;20705;-76
2021/04/07 11:11:35;;;;;;;15.93;2.90;;;6.50;99.90;;;;;;5068654;28;20575;-77
2021/04/07 11:14:02;;;;;;;15.57;2.93;;;6.30;99.90;;;;;;5067588;28;20269;-77
2021/04/07 11:16:35;;;;;;;15.37;3.23;;;6.30;99.90;;;;;;5065049;28;20197;-77
2021/04/07 11:19:02;;;;;;;14.70;2.87;;;6.50;99.90;;;;;;5046835;28;20206;-77
2021/04/07 11:21:28;;;;;;;13.43;2.80;;;6.80;99.90;;;;;;5062408;28;20193;-77
2021/04/07 11:23:55;;;;;;;19.77;2.80;;;6.90;99.90;;;;;;5076888;28;20749;-77
2021/04/07 11:26:21;;;;;;;16.27;2.53;;;6.90;99.90;;;;;;5069679;28;20205;-77
2021/04/07 11:28:47;;;;;;;13.83;2.33;;;6.60;99.90;;;;;;5061842;28;21828;-77
2021/04/07 11:31:19;;;;;;;18.50;2.63;;;6.50;99.90;;;;;;5074310;28;20757;-78
2021/04/07 11:33:50;;;;;;;12.10;2.50;;;6.40;99.90;;;;;;5082052;28;20208;-77
2021/04/07 11:39:09;;;;;;;17.07;2.53;;;6.40;99.90;;;;;;5073100;28;20205;-78
2021/04/07 11:41:50;;;;;;;17.10;2.40;;;6.90;99.90;;;;;;5060341;28;20249;-78
2021/04/07 11:47:03;;;;;;;15.67;1.90;;;6.90;99.90;;;;;;5062782;28;20215;-78
2021/04/07 11:49:31;;;;;;;10.57;2.40;;;6.90;99.90;;;;;;5079695;28;20207;-78
2021/04/07 11:51:57;;;;;;;10.70;2.20;;;7.10;99.90;;;;;;5059264;28;20202;-79
2021/04/07 11:54:24;;;;;;;15.33;2.40;;;7.40;99.90;;;;;;5059371;28;20292;-78
2021/04/07 11:56:50;;;;;;;14.23;2.03;;;7.90;99.90;;;;;;5055600;28;20288;-78
2021/04/07 11:59:18;;;;;;;15.20;2.67;;;8.00;99.90;;;;;;5058612;28;20220;-78
2021/04/07 12:01:46;;;;;;;12.83;2.30;;;8.10;99.90;;;;;;5070995;28;20609;-79
2021/04/07 12:04:13;;;;;;;15.43;2.30;;;8.50;99.90;;;;;;5054902;28;20655;-78
2021/04/07 12:06:42;;;;;;;16.57;2.20;;;8.80;99.90;;;;;;5062665;28;20293;-79
2021/04/07 12:09:10;;;;;;;16.07;2.23;;;9.00;99.90;;;;;;5068145;28;20696;-78
2021/04/07 12:11:37;;;;;;;18.47;2.77;;;9.10;99.90;;;;;;5073970;28;20281;-77
2021/04/07 12:14:04;;;;;;;15.13;2.70;;;9.20;99.90;;;;;;5070026;28;20662;-77
2021/04/07 12:16:31;;;;;;;11.07;2.47;;;9.50;99.90;;;;;;5056027;28;20729;-77
2021/04/07 12:18:58;;;;;;;9.50;1.90;;;9.70;99.90;;;;;;5054076;28;20301;-77
2021/04/07 12:21:25;;;;;;;14.30;2.33;;;9.80;99.90;;;;;;5070252;28;20196;-77
2021/04/07 12:23:56;;;;;;;9.33;2.80;;;9.70;99.90;;;;;;5073391;28;20280;-78
2021/04/07 12:26:22;;;;;;;9.43;1.70;;;9.50;99.90;;;;;;5071410;28;20284;-77
2021/04/07 12:28:48;;;;;;;11.37;2.40;;;9.40;99.90;;;;;;5071749;28;20308;-77
2021/04/07 12:31:17;;;;;;;12.30;2.03;;;9.40;99.90;;;;;;5061346;28;20359;-77
2021/04/07 12:33:49;;;;;;;10.30;1.70;;;9.50;99.90;;;;;;5076019;28;20195;-77
2021/04/07 12:36:16;;;;;;;5.70;1.97;;;9.50;99.90;;;;;;5072207;28;20273;-77
2021/04/07 12:38:43;;;;;;;12.40;1.80;;;9.20;99.90;;;;;;5071266;28;20226;-77
2021/04/07 12:41:14;;;;;;;10.67;2.53;;;9.10;99.90;;;;;;5072646;28;20235;-78
2021/04/07 12:43:41;;;;;;;10.47;2.40;;;8.80;99.90;;;;;;5068869;28;20597;-77
2021/04/07 12:46:07;;;;;;;9.03;2.33;;;8.40;99.90;;;;;;5068799;28;20242;-77
2021/04/07 12:48:33;;;;;;;12.23;2.17;;;8.20;99.90;;;;;;5071536;28;20225;-77
2021/04/07 12:51:00;;;;;;;9.80;2.30;;;8.00;99.90;;;;;;5069608;28;20208;-77
2021/04/07 12:53:26;;;;;;;16.97;2.93;;;8.00;99.90;;;;;;5052644;28;20228;-77
2021/04/07 12:55:53;;;;;;;12.57;2.43;;;8.10;99.90;;;;;;5070608;28;20196;-77
2021/04/07 12:58:20;;;;;;;17.20;2.30;;;8.40;99.90;;;;;;5077326;28;20205;-77
2021/04/07 13:00:50;;;;;;;11.83;2.50;;;8.60;99.90;;;;;;5073664;28;20202;-77
2021/04/07 13:03:17;;;;;;;11.47;2.40;;;9.10;99.90;;;;;;5067444;28;20202;-77